createdAt,value
2023-03-08T00:02:11.847Z,99975.22
2023-03-08T00:04:44.448Z,99969.72
2023-03-08T00:07:17.036Z,99968.22
2023-03-08T00:09:50.033Z,99973.53
2023-03-08T00:12:24.197Z,99961.22
2023-03-08T00:14:56.802Z,99964.72
2023-03-08T00:17:29.525Z,99956.84
2023-03-08T00:20:02.150Z,99970.81
2023-03-08T00:22:36.784Z,99968.81
2023-03-08T00:25:10.578Z,99965.69
2023-03-08T00:27:44.576Z,99953.06
2023-03-08T00:30:17.542Z,99947.19
2023-03-08T00:32:50.341Z,99952.97
2023-03-08T00:35:22.966Z,99946.06
2023-03-08T00:37:55.562Z,99950.78
2023-03-08T00:40:28.191Z,99944.56
2023-03-08T00:43:04.151Z,99940.53
2023-03-08T00:45:36.858Z,99944.47
2023-03-08T00:48:09.514Z,99938.38
2023-03-08T00:50:42.140Z,99942.88
2023-03-08T00:53:14.760Z,99936.59
2023-03-08T00:55:49.522Z,99931.19
2023-03-08T00:58:23.948Z,99939.75
2023-03-08T01:00:56.626Z,99933.44
2023-03-08T01:03:29.264Z,99914.44
2023-03-08T01:06:06.563Z,99913.94
2023-03-08T01:08:40.186Z,99910.16
2023-03-08T01:11:16.902Z,99912.44
2023-03-08T01:13:51.570Z,99910.09
2023-03-08T01:16:25.414Z,99908.41
2023-03-08T01:18:58.499Z,99902.72
2023-03-08T01:21:31.459Z,99893.63
2023-03-08T01:24:04.379Z,99884.00
2023-03-08T01:26:37.002Z,99883.56
2023-03-08T01:29:10.988Z,99872.72
2023-03-08T01:31:43.788Z,99870.25
2023-03-08T01:34:16.764Z,99853.31
2023-03-08T01:36:49.335Z,99859.41
2023-03-08T01:39:24.140Z,99862.13
2023-03-08T01:41:56.878Z,99861.00
2023-03-08T01:44:49.481Z,99855.75
2023-03-08T01:47:24.101Z,99864.59
2023-03-08T01:50:21.254Z,99863.69
2023-03-08T01:52:55.087Z,99850.94
2023-03-08T01:55:28.142Z,99849.81
2023-03-08T01:58:00.716Z,99847.44
2023-03-08T02:00:35.085Z,99836.16
2023-03-08T02:03:09.392Z,99832.91
2023-03-08T02:05:43.295Z,99829.94
2023-03-08T02:08:26.253Z,99824.09
2023-03-08T02:10:59.179Z,99815.78
2023-03-08T02:13:31.999Z,99811.16
2023-03-08T02:16:08.286Z,99820.41
2023-03-08T02:18:49.980Z,99806.88
2023-03-08T02:21:23.167Z,99806.41
2023-03-08T02:23:57.506Z,99800.19
2023-03-08T02:26:30.597Z,99789.72
2023-03-08T02:29:03.405Z,99794.44
2023-03-08T02:31:35.983Z,99800.13
2023-03-08T02:34:10.055Z,99804.41
2023-03-08T02:36:42.712Z,99802.66
2023-03-08T02:39:18.264Z,99797.41
2023-03-08T02:41:50.882Z,99804.94
2023-03-08T02:44:23.423Z,99809.19
2023-03-08T02:46:58.662Z,99807.72
2023-03-08T02:49:31.480Z,99805.19
2023-03-08T02:52:04.400Z,99791.63
2023-03-08T02:54:38.306Z,99793.81
2023-03-08T02:57:10.948Z,99779.28
2023-03-08T02:59:44.253Z,99769.25
2023-03-08T03:02:17.353Z,99769.25
2023-03-08T03:04:49.866Z,99767.91
2023-03-08T03:07:22.627Z,99760.69
2023-03-08T03:09:57.206Z,99763.47
2023-03-08T03:12:30.831Z,99765.66
2023-03-08T03:15:03.726Z,99758.69
2023-03-08T03:17:36.971Z,99751.75
2023-03-08T03:20:10.374Z,99741.34
2023-03-08T03:22:42.962Z,99734.28
2023-03-08T03:25:17.161Z,99720.75
2023-03-08T03:27:51.976Z,99708.41
2023-03-08T03:30:24.678Z,99709.56
2023-03-08T03:32:57.808Z,99717.31
2023-03-08T03:35:34.717Z,99718.13
2023-03-08T03:38:07.454Z,99714.38
2023-03-08T03:40:41.306Z,99718.66
2023-03-08T03:43:14.004Z,99721.00
2023-03-08T03:45:55.657Z,99714.78
2023-03-08T03:48:29.176Z,99711.31
2023-03-08T03:51:02.995Z,99709.38
2023-03-08T03:53:36.697Z,99708.22
2023-03-08T03:56:13.353Z,99696.97
2023-03-08T03:58:47.084Z,99693.84
2023-03-08T04:01:25.123Z,99689.97
2023-03-08T04:04:03.297Z,99689.97
2023-03-08T04:06:40.046Z,99683.06
2023-03-08T04:09:14.626Z,99670.72
2023-03-08T04:11:50.632Z,99667.41
2023-03-08T04:14:26.384Z,99667.59
2023-03-08T04:16:59.698Z,99668.31
2023-03-08T04:19:41.237Z,99662.88
2023-03-08T04:22:15.208Z,99655.91
2023-03-08T04:24:53.703Z,99655.91
2023-03-08T04:27:33.849Z,99634.22
2023-03-08T04:30:07.477Z,99635.34
2023-03-08T04:32:40.922Z,99642.78
2023-03-08T04:35:13.778Z,99647.31
2023-03-08T04:37:49.738Z,99640.94
2023-03-08T04:40:24.721Z,99630.63
2023-03-08T04:43:05.408Z,99619.38
2023-03-08T04:45:43.477Z,99621.72
2023-03-08T04:48:18.364Z,99612.88
2023-03-08T04:50:54.234Z,99610.63
2023-03-08T04:53:52.383Z,99598.53
2023-03-08T04:56:25.823Z,99590.06
2023-03-08T04:59:00.418Z,99590.16
2023-03-08T05:01:33.918Z,99586.56
2023-03-08T05:04:06.676Z,99587.00
2023-03-08T05:06:44.361Z,99578.00
2023-03-08T05:09:20.940Z,99575.31
2023-03-08T05:11:58.571Z,99557.63
2023-03-08T05:14:39.485Z,99546.63
2023-03-08T05:17:12.117Z,99540.94
2023-03-08T05:19:44.982Z,99543.22
2023-03-08T05:22:20.125Z,99540.06
2023-03-08T05:24:55.895Z,99529.25
2023-03-08T05:27:28.793Z,99529.97
2023-03-08T05:30:02.731Z,99522.63
2023-03-08T05:32:37.120Z,99523.81
2023-03-08T05:35:10.829Z,99510.22
2023-03-08T05:37:44.435Z,99515.28
2023-03-08T05:40:17.856Z,99504.84
2023-03-08T05:42:51.821Z,99510.28
2023-03-08T05:45:25.936Z,99503.03
2023-03-08T05:47:59.727Z,99500.72
2023-03-08T05:50:33.385Z,99504.94
2023-03-08T05:53:06.025Z,99494.03
2023-03-08T05:55:38.692Z,99496.31
2023-03-08T05:58:12.263Z,99490.16
2023-03-08T06:00:46.184Z,99482.50
2023-03-08T06:03:18.979Z,99483.91
2023-03-08T06:05:51.961Z,99483.28
2023-03-08T06:08:25.227Z,99492.88
2023-03-08T06:10:58.053Z,99483.59
2023-03-08T06:13:31.378Z,99487.19
2023-03-08T06:16:05.951Z,99486.31
2023-03-08T06:18:40.087Z,99486.31
2023-03-08T06:21:15.271Z,99485.25
2023-03-08T06:23:48.610Z,99491.03
2023-03-08T06:26:21.153Z,99482.50
2023-03-08T06:28:54.042Z,99481.63
2023-03-08T06:31:29.625Z,99487.91
2023-03-08T06:34:03.606Z,99480.19
2023-03-08T06:36:36.638Z,99488.31
2023-03-08T06:39:10.225Z,99483.75
2023-03-08T06:41:43.141Z,99483.75
2023-03-08T06:44:18.319Z,99477.22
2023-03-08T06:46:52.240Z,99480.97
2023-03-08T06:49:26.697Z,99485.25
2023-03-08T06:51:59.911Z,99478.63
2023-03-08T06:54:33.827Z,99471.66
2023-03-08T06:57:09.024Z,99476.34
2023-03-08T06:59:41.608Z,99478.97
2023-03-08T07:02:15.486Z,99475.47
2023-03-08T07:04:49.719Z,99475.47
2023-03-08T07:07:22.457Z,99468.13
2023-03-08T07:09:55.311Z,99469.38
2023-03-08T07:12:27.877Z,99464.63
2023-03-08T07:15:00.908Z,99466.66
2023-03-08T07:17:36.056Z,99466.22
2023-03-08T07:20:09.729Z,99459.22
2023-03-08T07:22:43.868Z,99459.59
2023-03-08T07:25:18.191Z,99449.97
2023-03-08T07:27:50.817Z,99455.41
2023-03-08T07:30:23.579Z,99451.97
2023-03-08T07:32:57.591Z,99449.69
2023-03-08T07:35:30.445Z,99444.97
2023-03-08T07:38:03.211Z,99447.31
2023-03-08T07:40:36.167Z,99450.41
2023-03-08T07:43:08.893Z,99450.41
2023-03-08T07:45:50.919Z,99440.97
2023-03-08T07:48:24.846Z,99438.78
2023-03-08T07:51:02.409Z,99434.97
2023-03-08T07:53:35.360Z,99434.28
2023-03-08T07:56:08.519Z,99438.00
2023-03-08T07:58:41.140Z,99433.56
2023-03-08T08:01:14.655Z,99426.56
2023-03-08T08:03:51.312Z,99418.75
2023-03-08T08:06:24.496Z,99427.28
2023-03-08T08:08:57.467Z,99431.19
2023-03-08T08:11:30.230Z,99428.84
2023-03-08T08:14:03.031Z,99438.22
2023-03-08T08:16:35.783Z,99436.72
2023-03-08T08:19:12.343Z,99428.16
2023-03-08T08:21:45.064Z,99430.56
2023-03-08T08:24:17.750Z,99430.50
2023-03-08T08:26:50.384Z,99417.00
2023-03-08T08:29:23.006Z,99416.97
2023-03-08T08:31:57.320Z,99416.31
2023-03-08T08:34:31.224Z,99401.13
2023-03-08T08:37:04.268Z,99412.88
2023-03-08T08:39:37.090Z,99415.22
2023-03-08T08:42:10.013Z,99420.50
2023-03-08T08:44:42.716Z,99408.34
2023-03-08T08:47:15.482Z,99404.69
2023-03-08T08:49:49.491Z,99407.25
2023-03-08T08:52:22.175Z,99408.66
2023-03-08T08:54:54.787Z,99405.97
2023-03-08T08:57:27.586Z,99402.47
2023-03-08T09:00:00.439Z,99405.91
2023-03-08T09:02:33.123Z,99385.78
2023-03-08T09:05:07.783Z,99380.44
2023-03-08T09:07:40.544Z,99374.16
2023-03-08T09:10:13.870Z,99370.25
2023-03-08T09:12:46.760Z,99370.69
2023-03-08T09:15:19.562Z,99367.25
2023-03-08T09:17:52.617Z,99356.25
2023-03-08T09:20:26.632Z,99352.31
2023-03-08T09:22:59.414Z,99367.09
2023-03-08T09:25:32.185Z,99357.41
2023-03-08T09:28:05.088Z,99348.13
2023-03-08T09:30:37.686Z,99335.88
2023-03-08T09:33:10.338Z,99335.03
2023-03-08T09:35:44.471Z,99344.00
2023-03-08T09:38:17.050Z,99347.94
2023-03-08T09:40:57.486Z,99353.41
2023-03-08T09:43:38.805Z,99358.78
2023-03-08T09:46:13.951Z,99351.75
2023-03-08T09:48:48.628Z,99340.88
2023-03-08T09:51:24.484Z,99340.50
2023-03-08T09:54:00.780Z,99340.94
2023-03-08T09:56:37.691Z,99329.03
2023-03-08T09:59:14.052Z,99317.91
2023-03-08T10:01:51.400Z,99325.59
2023-03-08T10:04:34.343Z,99323.31
2023-03-08T10:07:20.863Z,99309.44
2023-03-08T10:10:01.661Z,99307.84
2023-03-08T10:12:40.927Z,99304.75
2023-03-08T10:15:16.985Z,99293.25
2023-03-08T10:17:53.433Z,99299.59
2023-03-08T10:20:27.252Z,99303.81
2023-03-08T10:23:02.097Z,99298.84
2023-03-08T10:25:35.915Z,99306.97
2023-03-08T10:28:13.058Z,99320.19
2023-03-08T10:30:46.325Z,99327.47
2023-03-08T10:33:20.422Z,99340.66
2023-03-08T10:35:58.123Z,99335.34
2023-03-08T10:38:35.853Z,99324.63
2023-03-08T10:41:14.518Z,99305.16
2023-03-08T10:43:48.415Z,99298.38
2023-03-08T10:46:22.534Z,99317.00
2023-03-08T10:48:55.187Z,99314.22
2023-03-08T10:51:29.878Z,99314.22
2023-03-08T10:54:05.473Z,99300.47
2023-03-08T10:56:39.562Z,99293.44
2023-03-08T10:59:19.366Z,99290.88
2023-03-08T11:01:53.568Z,99289.72
2023-03-08T11:04:27.009Z,99298.72
2023-03-08T11:07:10.509Z,99306.50
2023-03-08T11:09:44.509Z,99306.00
2023-03-08T11:12:23.107Z,99299.13
2023-03-08T11:14:55.867Z,99292.22
2023-03-08T11:17:32.332Z,99288.22
2023-03-08T11:20:11.995Z,99262.34
2023-03-08T11:22:50.829Z,99250.81
2023-03-08T11:25:31.714Z,99242.44
2023-03-08T11:28:14.802Z,99245.91
2023-03-08T11:30:52.606Z,99238.56
2023-03-08T11:33:44.021Z,99217.75
2023-03-08T11:36:22.210Z,99237.13
2023-03-08T11:38:58.884Z,99248.22
2023-03-08T11:41:37.933Z,99262.34
2023-03-08T11:44:18.377Z,99260.16
2023-03-08T11:46:58.708Z,99278.72
2023-03-08T11:49:36.389Z,99269.41
2023-03-08T11:52:15.869Z,99274.31
2023-03-08T11:54:54.313Z,99270.63
2023-03-08T11:57:34.253Z,99277.63
2023-03-08T12:00:14.378Z,99277.03
2023-03-08T12:02:48.895Z,99267.34
2023-03-08T12:05:27.178Z,99254.94
2023-03-08T12:08:03.606Z,99262.59
2023-03-08T12:10:44.763Z,99266.09
2023-03-08T12:13:21.943Z,99266.53
2023-03-08T12:15:56.412Z,99263.00
2023-03-08T12:18:32.808Z,99255.63
2023-03-08T12:21:13.528Z,99254.50
2023-03-08T12:23:49.529Z,99259.06
2023-03-08T12:26:28.585Z,99262.16
2023-03-08T12:29:04.558Z,99262.66
2023-03-08T12:31:39.763Z,99269.59
2023-03-08T12:34:13.778Z,99273.09
2023-03-08T12:36:46.507Z,99266.09
2023-03-08T12:39:27.385Z,99269.94
2023-03-08T12:42:01.527Z,99264.88
2023-03-08T12:44:36.247Z,99262.59
2023-03-08T12:47:20.032Z,99256.41
2023-03-08T12:49:56.274Z,99246.75
2023-03-08T12:52:32.159Z,99239.34
2023-03-08T12:55:09.048Z,99235.06
2023-03-08T12:57:47.257Z,99224.91
2023-03-08T13:00:29.131Z,99212.16
2023-03-08T13:03:06.199Z,99209.13
2023-03-08T13:05:39.684Z,99225.75
2023-03-08T13:08:20.389Z,99223.41
2023-03-08T13:11:02.051Z,99234.34
2023-03-08T13:13:44.906Z,99228.13
2023-03-08T13:16:24.015Z,99224.63
2023-03-08T13:19:02.505Z,99220.78
2023-03-08T13:21:41.414Z,99227.78
2023-03-08T13:24:18.409Z,99218.44
2023-03-08T13:26:57.763Z,99217.69
2023-03-08T13:29:31.778Z,99224.69
2023-03-08T13:32:12.981Z,99226.28
2023-03-08T13:34:47.098Z,99229.81
2023-03-08T13:37:22.934Z,99226.28
2023-03-08T13:39:56.805Z,99222.06
2023-03-08T13:42:29.951Z,99220.84
2023-03-08T13:45:09.686Z,99222.31
2023-03-08T13:47:47.421Z,99218.47
2023-03-08T13:50:23.038Z,99226.31
2023-03-08T13:52:56.311Z,99224.38
2023-03-08T13:55:33.880Z,99213.81
2023-03-08T13:58:07.126Z,99219.28
2023-03-08T14:00:40.163Z,99221.66
2023-03-08T14:03:20.989Z,99227.47
2023-03-08T14:05:53.648Z,99225.47
2023-03-08T14:08:27.238Z,99225.50
2023-03-08T14:11:01.453Z,99223.16
2023-03-08T14:13:35.878Z,99218.84
2023-03-08T14:16:09.608Z,99223.09
2023-03-08T14:18:44.181Z,99225.84
2023-03-08T14:21:18.288Z,99218.03
2023-03-08T14:23:51.845Z,99222.34
2023-03-08T14:26:25.730Z,99225.81
2023-03-08T14:29:19.228Z,99221.53
2023-03-08T14:31:56.500Z,99212.97
2023-03-08T14:34:33.899Z,99212.94
2023-03-08T14:37:07.920Z,99204.38
2023-03-08T14:39:42.384Z,99198.94
2023-03-08T14:42:20.233Z,99194.19
2023-03-08T14:44:54.066Z,99200.44
2023-03-08T14:47:27.799Z,99198.16
2023-03-08T14:50:03.697Z,99214.47
2023-03-08T14:52:37.988Z,99203.19
2023-03-08T14:55:20.917Z,99217.19
2023-03-08T14:57:56.435Z,99215.59
2023-03-08T15:00:30.400Z,99222.22
2023-03-08T15:03:03.138Z,99211.31
2023-03-08T15:05:39.802Z,99213.31
2023-03-08T15:08:12.906Z,99226.88
2023-03-08T15:10:46.185Z,99224.53
2023-03-08T15:13:20.371Z,99221.00
2023-03-08T15:15:53.139Z,99215.19
2023-03-08T15:18:25.880Z,99207.81
2023-03-08T15:21:00.144Z,99197.28
2023-03-08T15:23:34.252Z,99195.34
2023-03-08T15:26:07.565Z,99198.84
2023-03-08T15:28:40.358Z,99205.03
2023-03-08T15:31:13.070Z,99193.75
2023-03-08T15:33:45.958Z,99194.06
2023-03-08T15:36:20.231Z,99195.69
2023-03-08T15:38:52.942Z,99185.94
2023-03-08T15:41:25.900Z,99185.56
2023-03-08T15:43:58.668Z,99179.69
2023-03-08T15:46:31.592Z,99170.75
2023-03-08T15:49:04.782Z,99163.81
2023-03-08T15:51:39.428Z,99164.53
2023-03-08T15:54:12.635Z,99166.06
2023-03-08T15:56:45.345Z,99181.63
2023-03-08T15:59:18.041Z,99174.97
2023-03-08T16:01:50.726Z,99179.22
2023-03-08T16:04:23.500Z,99172.59
2023-03-08T16:06:57.766Z,99171.78
2023-03-08T16:09:30.446Z,99179.56
2023-03-08T16:12:03.212Z,99175.34
2023-03-08T16:14:36.027Z,99176.81
2023-03-08T16:17:09.102Z,99173.75
2023-03-08T16:19:42.248Z,99172.94
2023-03-08T16:22:16.192Z,99177.59
2023-03-08T16:24:48.801Z,99184.19
2023-03-08T16:27:21.396Z,99186.88
2023-03-08T16:29:54.498Z,99181.41
2023-03-08T16:32:28.107Z,99177.50
2023-03-08T16:35:01.547Z,99181.00
2023-03-08T16:37:35.624Z,99179.81
2023-03-08T16:40:08.943Z,99182.97
2023-03-08T16:42:41.517Z,99171.69
2023-03-08T16:45:18.509Z,99177.47
2023-03-08T16:47:51.161Z,99175.50
2023-03-08T16:50:24.475Z,99173.50
2023-03-08T16:52:59.657Z,99177.00
2023-03-08T16:55:36.035Z,99179.69
2023-03-08T16:58:08.634Z,99175.50
2023-03-08T17:00:41.591Z,99176.22
2023-03-08T17:03:14.368Z,99182.03
2023-03-08T17:05:48.019Z,99170.38
2023-03-08T17:08:21.906Z,99175.78
2023-03-08T17:10:54.610Z,99174.53
2023-03-08T17:13:27.470Z,99174.91
2023-03-08T17:16:00.575Z,99188.09
2023-03-08T17:18:33.356Z,99179.16
2023-03-08T17:21:06.923Z,99174.84
2023-03-08T17:23:42.172Z,99167.84
2023-03-08T17:26:15.582Z,99172.13
2023-03-08T17:28:49.553Z,99167.78
2023-03-08T17:31:24.121Z,99177.53
2023-03-08T17:33:56.801Z,99175.13
2023-03-08T17:36:29.693Z,99177.00
2023-03-08T17:39:06.588Z,99177.78
2023-03-08T17:41:40.877Z,99175.78
2023-03-08T17:44:14.015Z,99164.56
2023-03-08T17:46:46.748Z,99161.41
2023-03-08T17:49:23.345Z,99162.56
2023-03-08T17:51:56.061Z,99161.44
2023-03-08T17:54:30.099Z,99161.81
2023-03-08T17:57:02.832Z,99156.78
2023-03-08T17:59:37.610Z,99155.19
2023-03-08T18:02:11.156Z,99155.97
2023-03-08T18:04:44.710Z,99148.16
2023-03-08T18:07:20.147Z,99145.72
2023-03-08T18:09:55.784Z,99146.50
2023-03-08T18:12:28.377Z,99144.56
2023-03-08T18:15:01.297Z,99148.03
2023-03-08T18:17:34.326Z,99146.50
2023-03-08T18:20:07.961Z,99143.31
2023-03-08T18:22:41.887Z,99135.63
2023-03-08T18:25:15.810Z,99134.03
2023-03-08T18:27:48.448Z,99134.47
2023-03-08T18:30:21.052Z,99134.06
2023-03-08T18:32:53.584Z,99133.25
2023-03-08T18:35:26.267Z,99127.16
2023-03-08T18:38:00.620Z,99133.38
2023-03-08T18:40:34.566Z,99124.72
2023-03-08T18:43:07.282Z,99117.72
2023-03-08T18:45:43.805Z,99123.13
2023-03-08T18:48:18.085Z,99119.25
2023-03-08T18:50:50.810Z,99122.34
2023-03-08T18:53:23.513Z,99122.28
2023-03-08T18:55:59.554Z,99122.31
2023-03-08T18:58:33.028Z,99113.00
2023-03-08T19:01:11.110Z,99117.63
2023-03-08T19:03:44.236Z,99121.19
2023-03-08T19:06:16.851Z,99116.16
2023-03-08T19:08:49.516Z,99110.72
2023-03-08T19:11:26.083Z,99107.09
2023-03-08T19:14:00.525Z,99103.97
2023-03-08T19:16:34.995Z,99107.47
2023-03-08T19:19:11.785Z,99099.78
2023-03-08T19:21:45.588Z,99106.69
2023-03-08T19:24:19.417Z,99107.47
2023-03-08T19:26:53.637Z,99107.56
2023-03-08T19:29:27.564Z,99115.16
2023-03-08T19:32:01.108Z,99122.13
2023-03-08T19:34:35.046Z,99119.81
2023-03-08T19:37:09.194Z,99126.41
2023-03-08T19:39:43.682Z,99119.03
2023-03-08T19:42:19.037Z,99107.47
2023-03-08T19:44:52.861Z,99101.97
2023-03-08T19:47:25.443Z,99101.19
2023-03-08T19:50:01.270Z,99094.59
2023-03-08T19:52:33.780Z,99096.91
2023-03-08T19:55:09.656Z,99101.50
2023-03-08T19:57:43.671Z,99113.09
2023-03-08T20:00:20.494Z,99100.34
2023-03-08T20:02:53.164Z,99104.22
2023-03-08T20:05:26.071Z,99094.53
2023-03-08T20:07:59.036Z,99085.56
2023-03-08T20:10:31.841Z,99089.31
2023-03-08T20:13:05.835Z,99093.97
2023-03-08T20:15:38.423Z,99075.69
2023-03-08T20:18:11.281Z,99084.66
2023-03-08T20:20:46.183Z,99093.97
2023-03-08T20:23:18.691Z,99100.63
2023-03-08T20:25:51.278Z,99107.91
2023-03-08T20:28:25.271Z,99109.47
2023-03-08T20:30:58.022Z,99109.38
2023-03-08T20:33:30.622Z,99120.75
2023-03-08T20:36:03.574Z,99114.16
2023-03-08T20:38:36.122Z,99116.34
2023-03-08T20:42:41.558Z,99118.75
2023-03-08T20:45:14.702Z,99114.09
2023-03-08T20:47:47.506Z,99112.53
2023-03-08T20:50:20.377Z,99116.41
2023-03-08T20:52:53.873Z,99110.94
2023-03-08T20:55:30.533Z,99113.59
2023-03-08T20:58:05.334Z,99097.31
2023-03-08T21:00:41.127Z,99098.00
2023-03-08T21:03:14.532Z,99094.94
2023-03-08T21:05:47.220Z,99090.72
2023-03-08T21:08:20.885Z,99095.31
2023-03-08T21:10:53.656Z,99088.06
2023-03-08T21:13:28.946Z,99086.78
2023-03-08T21:16:08.433Z,99081.47
2023-03-08T21:18:45.633Z,99079.88
2023-03-08T21:21:20.229Z,99084.56
2023-03-08T21:23:54.440Z,99099.56
2023-03-08T21:26:29.045Z,99094.91
2023-03-08T21:29:24.377Z,99089.09
2023-03-08T21:32:00.175Z,99087.47
2023-03-08T21:34:36.886Z,99093.22
2023-03-08T21:37:09.675Z,99098.31
2023-03-08T21:39:42.862Z,99109.56
2023-03-08T21:42:16.023Z,99105.69
2023-03-08T21:44:50.155Z,99104.88
2023-03-08T21:47:22.920Z,99104.84
2023-03-08T21:49:55.794Z,99103.75
2023-03-08T21:52:28.352Z,99110.72
2023-03-08T21:55:01.057Z,99099.88
2023-03-08T21:57:34.365Z,99102.53
2023-03-08T22:00:11.479Z,99094.00
2023-03-08T22:02:54.449Z,99099.13
2023-03-08T22:05:27.654Z,99094.31
2023-03-08T22:08:00.172Z,99091.28
2023-03-08T22:10:33.118Z,99093.53
2023-03-08T22:13:32.822Z,99097.81
2023-03-08T22:16:08.141Z,99099.00
2023-03-08T22:18:40.888Z,99103.59
2023-03-08T22:21:13.702Z,99106.03
2023-03-08T22:23:46.360Z,99101.28
2023-03-08T22:26:19.728Z,99094.22
2023-03-08T22:28:53.715Z,99096.94
2023-03-08T22:31:30.854Z,99096.50
2023-03-08T22:34:04.135Z,99100.34
2023-03-08T22:36:39.621Z,99110.56
2023-03-08T22:39:12.362Z,99095.75
2023-03-08T22:41:45.428Z,99099.66
2023-03-08T22:44:18.273Z,99093.44
2023-03-08T22:46:52.526Z,99101.22
2023-03-08T22:49:25.252Z,99105.13
2023-03-08T22:51:58.254Z,99103.13
2023-03-08T22:54:31.380Z,99101.13
2023-03-08T22:57:04.360Z,99093.44
2023-03-08T22:59:37.098Z,99094.19
2023-03-08T23:02:11.380Z,99106.22
2023-03-08T23:04:44.248Z,99099.63
2023-03-08T23:07:16.848Z,99081.66
2023-03-08T23:09:49.676Z,99075.53
2023-03-08T23:12:22.414Z,99077.00
2023-03-08T23:14:55.358Z,99068.56
2023-03-08T23:17:32.798Z,99062.25
2023-03-08T23:20:06.746Z,99056.38
2023-03-08T23:22:39.577Z,99054.59
2023-03-08T23:25:12.563Z,99063.78
2023-03-08T23:27:45.922Z,99051.75
2023-03-08T23:30:19.224Z,99049.09
2023-03-08T23:32:53.535Z,99054.06
2023-03-08T23:35:26.401Z,99053.75
2023-03-08T23:37:59.330Z,99061.50
2023-03-08T23:40:32.324Z,99071.25
2023-03-08T23:43:05.520Z,99074.66
2023-03-08T23:45:40.452Z,99081.72
2023-03-08T23:48:14.703Z,99079.28
2023-03-08T23:50:47.389Z,99097.91
2023-03-08T23:53:20.147Z,99090.06
2023-03-08T23:55:52.885Z,99085.44
2023-03-08T23:58:25.742Z,99079.91
